Time;durP1;ratioP1;P1;durP2;ratioP2;P2;SDS_P1;SDS_P2;PMS_P1;PMS_P2;Temp;Humidity;BMP_temperature;BMP_pressure;BME280_temperature;BME280_humidity;BME280_pressure;Samples;Min_cycle;Max_cycle;Signal;HPM_P1;HPM_P2
2023/03/29 00:01:52;;;;;;;14.90;8.30;;;;;;;-3.55;95.52;99308.36;132023;1288;22692;-88
2023/03/29 00:04:55;;;;;;;12.60;6.90;;;;;;;-3.54;95.42;99303.52;132100;1285;24409;-89
2023/03/29 00:08:00;;;;;;;12.60;7.10;;;;;;;-3.50;95.50;99313.55;132212;1284;22520;-86
2023/03/29 00:11:03;;;;;;;13.70;7.90;;;;;;;-3.47;95.62;99313.73;131990;1289;22586;-86
2023/03/29 00:14:06;;;;;;;13.70;7.40;;;;;;;-3.46;96.02;99316.08;131960;1287;22659;-88
2023/03/29 00:17:09;;;;;;;16.10;7.20;;;;;;;-3.49;96.33;99315.03;132046;1289;22505;-86
2023/03/29 00:20:12;;;;;;;18.70;8.30;;;;;;;-3.54;96.78;99316.84;131810;1285;24206;-88
2023/03/29 00:23:17;;;;;;;17.30;8.60;;;;;;;-3.59;96.99;99314.20;132052;1289;22527;-87
2023/03/29 00:26:20;;;;;;;15.10;7.30;;;;;;;-3.64;97.30;99315.29;132120;1289;25577;-86
2023/03/29 00:29:23;;;;;;;12.40;7.00;;;;;;;-3.69;97.37;99319.28;132065;1289;22600;-88
2023/03/29 00:32:26;;;;;;;12.70;7.60;;;;;;;-3.75;97.61;99317.02;131985;1283;24295;-88
2023/03/29 00:35:29;;;;;;;19.40;8.40;;;;;;;-3.82;97.95;99316.66;131952;1289;25654;-87
2023/03/29 00:38:31;;;;;;;18.90;9.00;;;;;;;-3.87;98.55;99306.20;131991;1289;23095;-88
2023/03/29 00:41:34;;;;;;;18.90;9.90;;;;;;;-3.93;98.81;99309.04;132003;1284;22571;-87
2023/03/29 00:44:37;;;;;;;20.00;9.90;;;;;;;-4.00;99.17;99308.18;131901;1277;22557;-87
2023/03/29 00:47:40;;;;;;;20.30;11.20;;;;;;;-4.06;99.55;99310.86;131822;1283;24214;-89
2023/03/29 00:50:43;;;;;;;24.10;11.30;;;;;;;-4.13;99.98;99311.36;131877;1284;22696;-88
2023/03/29 00:53:47;;;;;;;20.70;10.80;;;;;;;-4.20;100.00;99305.73;131823;1282;25638;-88
2023/03/29 00:56:49;;;;;;;21.30;10.80;;;;;;;-4.26;100.00;99308.56;131719;1282;22740;-87
2023/03/29 00:59:52;;;;;;;14.30;8.60;;;;;;;-4.27;100.00;99303.53;131843;1289;25554;-87
2023/03/29 01:02:58;;;;;;;16.10;9.00;;;;;;;-4.26;100.00;99301.77;131840;1284;24776;-87
2023/03/29 01:06:01;;;;;;;16.30;8.00;;;;;;;-4.26;100.00;99300.55;131728;1290;25546;-88
2023/03/29 01:09:06;;;;;;;19.40;9.00;;;;;;;-4.27;100.00;99295.48;131854;1282;23976;-88
2023/03/29 01:12:09;;;;;;;16.00;8.30;;;;;;;-4.29;100.00;99289.95;131886;1283;24241;-88
2023/03/29 01:15:12;;;;;;;15.70;8.90;;;;;;;-4.35;100.00;99293.64;131950;1283;22681;-87
2023/03/29 01:18:15;;;;;;;19.80;10.40;;;;;;;-4.39;100.00;99296.20;131981;1283;22626;-87
2023/03/29 01:21:18;;;;;;;20.80;9.60;;;;;;;-4.43;100.00;99291.27;132049;1290;22544;-88
2023/03/29 01:24:21;;;;;;;19.30;8.50;;;;;;;-4.46;100.00;99291.59;132133;1290;25435;-87
2023/03/29 01:27:24;;;;;;;15.90;9.10;;;;;;;-4.50;100.00;99288.56;132178;1283;22563;-89
2023/03/29 01:30:27;;;;;;;20.20;8.80;;;;;;;-4.55;100.00;99285.38;132104;1290;24311;-89
2023/03/29 01:33:30;;;;;;;14.60;7.80;;;;;;;-4.60;100.00;99285.08;132487;1289;22484;-86
2023/03/29 01:36:33;;;;;;;20.60;9.30;;;;;;;-4.65;100.00;99282.44;132807;1283;22544;-88
2023/03/29 01:39:36;;;;;;;20.00;9.80;;;;;;;-4.69;100.00;99279.90;133171;1289;22637;-89
2023/03/29 01:42:39;;;;;;;14.60;7.50;;;;;;;-4.73;100.00;99276.16;132856;1289;24201;-88
2023/03/29 01:45:41;;;;;;;18.40;10.50;;;;;;;-4.76;100.00;99276.30;133045;1289;22551;-87
2023/03/29 01:48:44;;;;;;;13.90;7.80;;;;;;;-4.75;100.00;99272.17;133360;1289;22609;-88
2023/03/29 01:51:47;;;;;;;17.10;9.60;;;;;;;-4.73;100.00;99270.70;133027;1283;22742;-88
2023/03/29 01:54:50;;;;;;;17.80;9.80;;;;;;;-4.70;100.00;99274.80;132759;1289;22543;-89
2023/03/29 01:57:52;;;;;;;15.40;9.30;;;;;;;-4.69;100.00;99274.27;131974;1282;22560;-87
2023/03/29 02:00:55;;;;;;;25.90;10.90;;;;;;;-4.69;100.00;99274.79;132032;1283;24240;-87
2023/03/29 02:03:58;;;;;;;22.80;11.70;;;;;;;-4.71;100.00;99269.91;132083;1289;23906;-87
2023/03/29 02:07:01;;;;;;;17.40;10.10;;;;;;;-4.74;100.00;99271.42;132083;1284;24265;-88
2023/03/29 02:10:03;;;;;;;17.20;9.00;;;;;;;-4.81;100.00;99267.65;132045;1284;22785;-88
2023/03/29 02:13:06;;;;;;;18.80;9.60;;;;;;;-4.87;100.00;99269.59;132458;1283;22613;-88
2023/03/29 02:16:10;;;;;;;19.20;9.00;;;;;;;-4.91;100.00;99268.81;132293;1282;22658;-88
2023/03/29 02:19:14;;;;;;;22.30;9.80;;;;;;;-4.97;100.00;99268.70;132320;1289;22665;-87
2023/03/29 02:22:16;;;;;;;35.60;12.20;;;;;;;-5.03;100.00;99272.76;132641;1286;22567;-87
2023/03/29 02:25:21;;;;;;;32.70;12.40;;;;;;;-5.09;100.00;99277.27;132593;1289;25727;-87
2023/03/29 02:28:24;;;;;;;26.10;11.40;;;;;;;-5.14;100.00;99276.96;133340;1289;24266;-86
2023/03/29 02:31:26;;;;;;;28.30;13.00;;;;;;;-5.20;100.00;99280.13;132589;1286;263639;-88
2023/03/29 02:34:29;;;;;;;30.30;13.20;;;;;;;-5.23;100.00;99285.02;131936;1283;22591;-87
2023/03/29 02:37:33;;;;;;;20.80;10.20;;;;;;;-5.23;100.00;99284.36;131993;1282;22653;-88
2023/03/29 02:40:36;;;;;;;33.90;12.30;;;;;;;-5.21;100.00;99285.46;132264;1282;22749;-88
2023/03/29 02:43:39;;;;;;;18.80;9.50;;;;;;;-5.19;100.00;99282.95;133979;1286;22522;-87
2023/03/29 02:46:42;;;;;;;24.40;10.60;;;;;;;-5.16;100.00;99280.13;133957;1286;22532;-84
2023/03/29 02:49:45;;;;;;;24.80;10.30;;;;;;;-5.15;100.00;99285.50;133411;1283;22322;-86
2023/03/29 02:52:48;;;;;;;13.20;9.00;;;;;;;-5.18;100.00;99285.48;133794;1289;25475;-86
2023/03/29 02:55:51;;;;;;;18.30;10.10;;;;;;;-5.23;100.00;99287.77;132519;1283;23324;-88
2023/03/29 02:58:54;;;;;;;21.10;10.50;;;;;;;-5.27;100.00;99288.42;132199;1289;24356;-87
2023/03/29 03:01:57;;;;;;;28.70;14.00;;;;;;;-5.30;100.00;99288.73;132325;1286;22774;-84
2023/03/29 03:04:59;;;;;;;28.20;12.20;;;;;;;-5.35;100.00;99289.30;135741;1289;22876;-86
2023/03/29 03:08:03;;;;;;;28.60;12.70;;;;;;;-5.39;100.00;99288.96;135887;1285;24190;-86
2023/03/29 03:11:06;;;;;;;34.40;14.30;;;;;;;-5.43;100.00;99286.05;135940;1286;22626;-84
2023/03/29 03:14:09;;;;;;;29.10;12.10;;;;;;;-5.45;100.00;99288.86;135337;1290;22677;-88
2023/03/29 03:17:12;;;;;;;41.80;15.40;;;;;;;-5.48;100.00;99292.59;134046;1290;22550;-87
2023/03/29 03:20:15;;;;;;;36.30;12.80;;;;;;;-5.51;100.00;99290.84;132608;1290;22618;-88
2023/03/29 03:23:18;;;;;;;36.70;13.90;;;;;;;-5.54;100.00;99293.50;132812;1290;24269;-89
2023/03/29 03:26:20;;;;;;;31.60;13.50;;;;;;;-5.54;100.00;99292.48;132669;1290;22571;-88
2023/03/29 03:29:23;;;;;;;37.00;14.40;;;;;;;-5.52;100.00;99292.91;132584;1290;25424;-88
2023/03/29 03:32:26;;;;;;;37.30;14.60;;;;;;;-5.51;100.00;99297.98;132071;1290;22617;-87
2023/03/29 03:35:29;;;;;;;39.00;14.00;;;;;;;-5.50;100.00;99294.33;132011;1290;23323;-88
2023/03/29 03:38:32;;;;;;;36.40;14.00;;;;;;;-5.50;100.00;99293.81;131953;1290;25570;-87
2023/03/29 03:41:35;;;;;;;31.40;14.00;;;;;;;-5.50;100.00;99301.33;132012;1286;22625;-89
2023/03/29 03:44:38;;;;;;;37.20;13.50;;;;;;;-5.54;100.00;99303.36;131990;1290;24235;-87
2023/03/29 03:47:41;;;;;;;26.80;12.40;;;;;;;-5.57;100.00;99306.73;131963;1290;22655;-88
2023/03/29 03:50:43;;;;;;;30.90;13.80;;;;;;;-5.61;100.00;99306.74;131896;1290;22656;-88
2023/03/29 03:53:46;;;;;;;24.60;12.30;;;;;;;-5.66;100.00;99303.39;131842;1290;22502;-88
2023/03/29 03:56:49;;;;;;;29.20;14.60;;;;;;;-5.70;100.00;99300.64;131830;1290;24350;-87
2023/03/29 03:59:52;;;;;;;27.10;14.00;;;;;;;-5.74;100.00;99307.61;131832;1290;25455;-87
2023/03/29 04:02:55;;;;;;;25.60;13.30;;;;;;;-5.76;100.00;99310.09;131767;1290;23770;-87
2023/03/29 04:05:58;;;;;;;22.90;12.40;;;;;;;-5.80;100.00;99314.65;131736;1289;22663;-87
2023/03/29 04:09:01;;;;;;;35.00;17.90;;;;;;;-5.84;100.00;99317.54;131787;1290;23883;-90
2023/03/29 04:12:04;;;;;;;29.20;15.80;;;;;;;-5.85;100.00;99320.46;132276;1290;25277;-90
2023/03/29 04:15:07;;;;;;;19.60;12.00;;;;;;;-5.83;100.00;99324.50;131981;1290;24272;-91
2023/03/29 04:18:16;;;;;;;28.50;11.60;;;;;;;-5.81;100.00;99318.77;132367;1290;22615;-89
2023/03/29 04:21:19;;;;;;;30.80;15.40;;;;;;;-5.76;100.00;99320.27;132931;1290;25309;-89
2023/03/29 04:24:21;;;;;;;26.10;13.40;;;;;;;-5.71;100.00;99311.40;133401;1290;22552;-90
2023/03/29 04:27:24;;;;;;;25.90;12.90;;;;;;;-5.67;100.00;99314.98;132651;1289;22496;-89
2023/03/29 04:30:27;;;;;;;19.80;12.20;;;;;;;-5.68;100.00;99312.80;132633;1290;24214;-89
2023/03/29 04:33:30;;;;;;;24.50;12.50;;;;;;;-5.68;100.00;99314.18;132168;1290;25358;-90
2023/03/29 04:36:33;;;;;;;25.50;11.50;;;;;;;-5.65;100.00;99313.91;135386;1290;22768;-85
2023/03/29 04:39:36;;;;;;;22.50;11.00;;;;;;;-5.63;100.00;99313.77;135867;1290;22274;-84
2023/03/29 04:42:41;;;;;;;22.70;12.20;;;;;;;-5.51;100.00;99314.80;135238;1290;22645;-84
2023/03/29 04:45:44;;;;;;;22.60;10.70;;;;;;;-5.36;100.00;99313.83;133680;1290;24210;-85
2023/03/29 04:48:47;;;;;;;17.50;10.30;;;;;;;-5.31;100.00;99310.54;131779;1290;22665;-86
2023/03/29 04:51:50;;;;;;;19.00;10.10;;;;;;;-5.23;100.00;99313.11;131780;1283;22627;-85
2023/03/29 04:54:52;;;;;;;19.40;9.60;;;;;;;-5.04;100.00;99310.77;132067;1290;25286;-85
2023/03/29 04:57:55;;;;;;;18.60;10.40;;;;;;;-4.82;100.00;99313.19;132407;1290;22741;-85
2023/03/29 05:00:58;;;;;;;16.70;8.10;;;;;;;-4.48;100.00;99312.14;132718;1290;22544;-85
2023/03/29 05:04:01;;;;;;;19.40;11.00;;;;;;;-4.15;100.00;99316.20;131811;1280;22681;-87
2023/03/29 05:07:05;;;;;;;27.60;15.50;;;;;;;-3.81;100.00;99315.77;131753;1290;22537;-86
2023/03/29 05:10:08;;;;;;;23.30;12.00;;;;;;;-3.52;100.00;99314.33;131887;1290;23012;-87
2023/03/29 05:13:11;;;;;;;30.90;13.40;;;;;;;-3.29;100.00;99317.63;132255;1290;22562;-88
2023/03/29 05:16:14;;;;;;;38.30;15.50;;;;;;;-3.08;100.00;99318.10;131728;1289;22753;-86
2023/03/29 05:19:20;;;;;;;26.70;11.80;;;;;;;-2.87;100.00;99319.54;132015;1290;22594;-86
2023/03/29 05:22:23;;;;;;;33.80;15.20;;;;;;;-2.82;100.00;99321.18;131772;1290;23239;-86
2023/03/29 05:25:26;;;;;;;28.30;13.20;;;;;;;-2.76;100.00;99321.70;131768;1290;26704;-86
2023/03/29 05:28:29;;;;;;;20.50;11.20;;;;;;;-2.71;100.00;99316.81;131854;1290;22573;-86
2023/03/29 05:31:32;;;;;;;20.50;11.60;;;;;;;-2.65;100.00;99317.52;131828;1290;25308;-86
2023/03/29 05:34:35;;;;;;;19.60;10.60;;;;;;;-2.62;100.00;99316.86;131926;1290;26668;-86
2023/03/29 05:37:39;;;;;;;15.50;9.90;;;;;;;-2.63;99.99;99314.17;131767;1290;22557;-86
2023/03/29 05:40:42;;;;;;;20.00;10.40;;;;;;;-2.59;99.98;99316.34;134518;1289;22579;-85
2023/03/29 05:43:45;;;;;;;19.00;10.80;;;;;;;-2.55;99.13;99319.91;135237;1290;22592;-85
2023/03/29 05:46:47;;;;;;;18.40;9.40;;;;;;;-2.49;99.66;99321.48;135171;1290;22580;-86
2023/03/29 05:49:51;;;;;;;16.00;9.00;;;;;;;-2.41;99.78;99320.14;133728;1290;25476;-87
2023/03/29 05:52:54;;;;;;;16.60;9.20;;;;;;;-2.31;99.16;99318.60;131880;1279;22861;-87
2023/03/29 05:55:57;;;;;;;16.80;9.30;;;;;;;-2.20;97.81;99319.52;132063;1290;25444;-87
2023/03/29 05:59:00;;;;;;;14.00;9.10;;;;;;;-2.11;94.73;99322.09;132048;1290;24025;-85
2023/03/29 06:02:03;;;;;;;13.90;9.30;;;;;;;-2.04;94.63;99317.95;132036;1290;25446;-86
2023/03/29 06:05:07;;;;;;;16.40;9.00;;;;;;;-1.96;94.96;99315.45;131984;1290;22573;-86
2023/03/29 06:08:10;;;;;;;16.80;9.10;;;;;;;-1.86;93.94;99313.48;131787;1290;24079;-87
2023/03/29 06:11:14;;;;;;;14.00;8.30;;;;;;;-1.77;93.59;99314.53;131700;1290;24390;-87
2023/03/29 06:14:17;;;;;;;13.40;8.50;;;;;;;-1.67;91.94;99315.49;131642;1290;22605;-87
2023/03/29 06:17:21;;;;;;;14.80;9.70;;;;;;;-1.59;91.44;99318.66;131713;1290;22552;-87
2023/03/29 06:20:24;;;;;;;11.10;8.50;;;;;;;-1.47;91.21;99315.55;131651;1290;25452;-87
2023/03/29 06:23:26;;;;;;;12.40;7.80;;;;;;;-1.37;89.21;99310.00;131670;1290;24384;-87
2023/03/29 06:26:29;;;;;;;11.90;9.00;;;;;;;-1.28;88.26;99309.98;131668;1283;22663;-86
2023/03/29 06:29:32;;;;;;;11.60;8.20;;;;;;;-1.19;86.76;99309.94;131728;1290;24234;-87
2023/03/29 06:32:36;;;;;;;11.20;7.90;;;;;;;-1.08;86.74;99309.48;131690;1290;25491;-87
2023/03/29 06:35:39;;;;;;;14.90;8.40;;;;;;;-1.00;85.71;99309.17;131646;1289;22573;-86
2023/03/29 06:38:42;;;;;;;13.60;8.30;;;;;;;-0.89;85.17;99312.95;131755;1290;22533;-86
2023/03/29 06:41:45;;;;;;;11.40;7.10;;;;;;;-0.77;85.11;99315.83;131698;1289;24260;-86
2023/03/29 06:44:48;;;;;;;11.50;7.90;;;;;;;-0.66;84.32;99319.58;131705;1290;22673;-86
2023/03/29 06:47:51;;;;;;;11.90;7.60;;;;;;;-0.53;84.68;99322.05;131708;1290;22569;-87
2023/03/29 06:50:54;;;;;;;12.00;7.70;;;;;;;-0.39;83.67;99320.34;131715;1290;22576;-87
2023/03/29 06:53:57;;;;;;;11.70;7.30;;;;;;;-0.26;82.86;99321.22;131813;1290;22565;-87
2023/03/29 06:57:00;;;;;;;11.40;6.60;;;;;;;-0.13;81.97;99319.23;132036;1290;22539;-88
2023/03/29 07:00:12;;;;;;;12.40;6.80;;;;;;;-0.02;81.46;99319.52;132573;1290;25431;-87
2023/03/29 07:03:22;;;;;;;12.50;6.70;;;;;;;0.11;80.56;99319.57;132222;1290;25924;-87
2023/03/29 07:06:25;;;;;;;9.60;6.20;;;;;;;0.24;79.73;99322.67;132053;1290;22485;-86
2023/03/29 07:09:29;;;;;;;10.10;6.10;;;;;;;0.36;78.48;99323.26;131950;1290;22528;-87
2023/03/29 07:12:32;;;;;;;7.40;5.10;;;;;;;0.49;76.21;99320.33;131796;1290;24034;-86
2023/03/29 07:15:35;;;;;;;9.00;5.50;;;;;;;0.59;76.01;99323.98;131953;1286;25331;-87
2023/03/29 07:18:38;;;;;;;11.80;5.60;;;;;;;0.73;77.36;99321.68;131913;1290;22536;-86
2023/03/29 07:21:41;;;;;;;11.30;5.50;;;;;;;0.86;76.49;99329.17;131989;1290;22670;-87
2023/03/29 07:24:44;;;;;;;8.30;6.10;;;;;;;0.99;75.33;99328.85;131802;1290;22548;-87
2023/03/29 07:27:47;;;;;;;11.90;6.50;;;;;;;1.10;74.34;99325.83;131949;1290;22550;-87
2023/03/29 07:30:50;;;;;;;9.80;6.20;;;;;;;1.23;73.42;99327.41;131825;1290;24225;-85
2023/03/29 07:33:53;;;;;;;6.70;5.00;;;;;;;1.31;69.10;99326.16;131511;1290;23028;-86
2023/03/29 07:36:56;;;;;;;7.60;4.90;;;;;;;1.36;68.93;99320.60;131513;1290;22656;-86
2023/03/29 07:40:02;;;;;;;7.50;5.20;;;;;;;1.42;65.98;99325.33;131555;1290;22731;-87
2023/03/29 07:43:08;;;;;;;6.30;4.40;;;;;;;1.49;66.48;99319.59;131467;1289;22659;-85
2023/03/29 07:46:11;;;;;;;7.70;5.20;;;;;;;1.58;64.11;99318.55;131575;1290;25513;-84
2023/03/29 07:49:13;;;;;;;4.50;4.00;;;;;;;1.65;62.88;99323.73;131832;1290;22651;-87
2023/03/29 07:52:17;;;;;;;3.80;3.20;;;;;;;1.72;62.70;99318.62;131623;1290;22563;-88
2023/03/29 07:55:20;;;;;;;5.20;3.60;;;;;;;1.81;61.68;99321.73;131712;1290;22539;-85
2023/03/29 07:58:23;;;;;;;6.10;4.20;;;;;;;1.90;61.00;99325.54;131514;1290;24267;-88
2023/03/29 08:01:26;;;;;;;6.80;4.70;;;;;;;2.00;60.66;99319.85;131851;1289;22557;-85
2023/03/29 08:04:29;;;;;;;5.50;4.00;;;;;;;2.11;59.99;99318.08;131765;1286;23109;-85
2023/03/29 08:07:32;;;;;;;6.90;3.70;;;;;;;2.22;60.46;99315.98;131529;1290;22653;-85
2023/03/29 08:10:35;;;;;;;6.10;3.90;;;;;;;2.36;60.52;99312.10;131429;1286;22586;-85
2023/03/29 08:13:38;;;;;;;6.40;4.20;;;;;;;2.48;59.54;99312.23;131271;1290;24279;-85
2023/03/29 08:16:41;;;;;;;6.90;4.20;;;;;;;2.59;59.35;99309.66;131347;1290;24433;-85
2023/03/29 08:19:43;;;;;;;6.20;4.40;;;;;;;2.70;58.38;99306.30;131712;1290;25509;-85
2023/03/29 08:22:47;;;;;;;6.20;4.10;;;;;;;2.79;58.74;99300.59;131670;1290;22723;-87
2023/03/29 08:25:50;;;;;;;5.80;4.50;;;;;;;2.89;57.54;99301.73;131725;1290;25424;-85
2023/03/29 08:28:53;;;;;;;4.50;3.20;;;;;;;2.99;57.00;99300.13;131680;1290;22545;-85
2023/03/29 08:31:58;;;;;;;6.00;4.20;;;;;;;3.09;56.33;99293.79;131437;1290;24841;-85
2023/03/29 08:35:03;;;;;;;4.50;3.10;;;;;;;3.18;55.94;99294.80;131777;1290;25478;-86
2023/03/29 08:38:07;;;;;;;5.60;3.90;;;;;;;3.22;55.46;99293.66;131762;1290;25267;-85
2023/03/29 08:41:10;;;;;;;4.10;3.40;;;;;;;3.27;55.49;99297.73;131882;1290;22542;-86
2023/03/29 08:44:12;;;;;;;4.40;3.10;;;;;;;3.26;50.81;99299.23;131777;1289;22539;-85
2023/03/29 08:47:16;;;;;;;5.20;3.50;;;;;;;3.24;52.12;99290.73;131713;1289;25239;-86
2023/03/29 08:50:18;;;;;;;3.40;3.10;;;;;;;3.26;50.89;99292.65;131774;1290;22543;-86
2023/03/29 08:53:21;;;;;;;4.80;3.70;;;;;;;3.30;50.99;99292.20;131762;1290;22595;-88
2023/03/29 08:56:25;;;;;;;3.70;2.40;;;;;;;3.42;53.19;99288.47;131747;1290;25365;-86
2023/03/29 08:59:28;;;;;;;4.20;2.60;;;;;;;3.52;50.42;99290.41;131725;1289;24239;-85
2023/03/29 09:02:31;;;;;;;3.40;2.30;;;;;;;3.56;50.18;99287.91;131631;1290;22611;-86
2023/03/29 09:05:34;;;;;;;3.30;2.30;;;;;;;3.59;49.69;99280.27;131696;1284;22676;-86
2023/03/29 09:08:37;;;;;;;3.20;2.30;;;;;;;3.63;49.69;99285.27;131718;1289;22561;-86
2023/03/29 09:11:40;;;;;;;2.50;2.10;;;;;;;3.67;49.76;99284.53;132129;1290;24235;-85
2023/03/29 09:14:42;;;;;;;3.30;1.80;;;;;;;3.76;50.05;99276.12;131830;1290;25242;-87
2023/03/29 09:17:46;;;;;;;1.80;1.60;;;;;;;3.85;50.14;99274.71;131767;1290;22599;-86
2023/03/29 09:20:49;;;;;;;3.40;2.20;;;;;;;3.94;49.90;99270.84;131669;1290;22507;-85
2023/03/29 09:23:52;;;;;;;3.50;2.40;;;;;;;3.99;48.08;99269.23;131696;1289;25614;-86
2023/03/29 09:26:55;;;;;;;2.90;2.10;;;;;;;4.00;47.19;99264.64;131762;1288;25400;-86
2023/03/29 09:29:58;;;;;;;4.70;2.40;;;;;;;4.00;47.42;99265.32;131810;1290;25605;-87
2023/03/29 09:33:01;;;;;;;1.80;1.70;;;;;;;4.05;47.72;99256.69;131888;1290;22536;-86
2023/03/29 09:36:04;;;;;;;1.90;1.70;;;;;;;4.14;48.14;99252.11;131839;1289;22541;-87
2023/03/29 09:39:07;;;;;;;1.60;1.50;;;;;;;4.24;47.68;99252.10;131466;1289;22546;-86
2023/03/29 09:42:10;;;;;;;1.80;1.70;;;;;;;4.33;47.91;99246.92;131809;1290;25368;-88
2023/03/29 09:45:14;;;;;;;1.70;1.60;;;;;;;4.42;47.27;99249.09;131681;1290;22544;-86
2023/03/29 09:48:17;;;;;;;2.20;1.80;;;;;;;4.50;47.73;99241.33;131700;1290;22664;-85
2023/03/29 09:51:20;;;;;;;2.10;1.70;;;;;;;4.60;47.32;99233.92;131734;1290;24819;-86
2023/03/29 09:54:23;;;;;;;1.50;1.40;;;;;;;4.69;46.86;99232.98;132157;1290;22547;-84
2023/03/29 09:57:26;;;;;;;2.40;1.80;;;;;;;4.78;46.46;99234.70;133217;1290;22513;-84
2023/03/29 10:00:29;;;;;;;1.80;1.70;;;;;;;4.84;46.00;99231.55;133579;1290;24265;-83
2023/03/29 10:03:33;;;;;;;1.90;1.60;;;;;;;4.89;45.77;99232.67;133525;1290;24256;-84
2023/03/29 10:06:37;;;;;;;2.90;2.40;;;;;;;4.97;45.40;99232.89;131790;1290;24524;-84
2023/03/29 10:09:40;;;;;;;4.30;2.70;;;;;;;5.02;45.09;99231.94;131779;1290;23919;-84
2023/03/29 10:12:49;;;;;;;2.30;2.10;;;;;;;5.05;45.47;99228.71;131767;1290;23920;-85
2023/03/29 10:15:52;;;;;;;2.90;2.30;;;;;;;5.06;44.46;99230.02;131826;1290;24063;-86
2023/03/29 10:18:55;;;;;;;2.30;2.10;;;;;;;5.07;45.15;99225.90;131746;1289;24290;-84
2023/03/29 10:21:58;;;;;;;3.70;1.80;;;;;;;5.12;44.17;99224.44;131594;1290;24422;-86
2023/03/29 10:25:01;;;;;;;2.30;2.10;;;;;;;5.19;44.07;99227.89;131843;1290;22553;-86
2023/03/29 10:28:04;;;;;;;2.40;2.10;;;;;;;5.24;42.80;99228.45;131708;1290;22544;-85
2023/03/29 10:31:06;;;;;;;3.10;2.20;;;;;;;5.27;42.68;99229.39;131675;1290;22550;-86
2023/03/29 10:34:09;;;;;;;2.30;2.10;;;;;;;5.30;42.43;99225.89;131670;1290;22543;-87
2023/03/29 10:37:15;;;;;;;2.40;2.10;;;;;;;5.29;41.26;99225.55;131637;1290;22536;-86
2023/03/29 10:40:18;;;;;;;2.70;2.50;;;;;;;5.32;42.13;99220.84;131674;1289;25508;-86
2023/03/29 10:43:21;;;;;;;3.70;2.30;;;;;;;5.38;42.55;99219.47;131799;1290;22658;-87
2023/03/29 10:46:24;;;;;;;3.00;2.10;;;;;;;5.45;40.89;99224.39;131695;1290;22552;-85
2023/03/29 10:49:27;;;;;;;3.20;2.60;;;;;;;5.46;41.44;99221.39;131663;1283;24094;-86
2023/03/29 10:52:30;;;;;;;4.30;2.80;;;;;;;5.49;42.19;99212.77;131721;1290;24245;-86
2023/03/29 10:55:33;;;;;;;3.80;3.00;;;;;;;5.54;42.10;99209.70;131721;1290;23932;-85
2023/03/29 10:58:36;;;;;;;3.90;3.10;;;;;;;5.61;42.57;99211.35;131731;1289;25344;-84
2023/03/29 11:01:39;;;;;;;4.40;2.70;;;;;;;5.68;42.03;99209.33;131696;1290;23160;-85
2023/03/29 11:04:42;;;;;;;5.20;3.30;;;;;;;5.74;41.73;99204.14;131664;1290;23926;-85
2023/03/29 11:07:45;;;;;;;3.10;2.80;;;;;;;5.80;41.94;99200.37;131476;1290;22968;-85
2023/03/29 11:10:49;;;;;;;5.30;2.90;;;;;;;5.83;41.03;99196.89;131352;1290;25313;-84
2023/03/29 11:13:52;;;;;;;3.10;2.80;;;;;;;5.87;41.71;99193.12;131752;1290;22540;-85
2023/03/29 11:16:55;;;;;;;3.40;2.80;;;;;;;5.90;40.51;99186.75;131731;1290;24282;-83
2023/03/29 11:19:58;;;;;;;3.50;2.50;;;;;;;5.88;39.36;99190.92;131737;1289;25497;-84
2023/03/29 11:23:01;;;;;;;3.90;2.70;;;;;;;5.86;40.64;99183.17;131625;1283;22524;-85
2023/03/29 11:26:04;;;;;;;3.10;2.80;;;;;;;5.85;40.53;99178.18;131523;1290;22543;-85
2023/03/29 11:29:08;;;;;;;4.70;2.90;;;;;;;5.87;40.48;99174.23;131625;1286;23008;-85
2023/03/29 11:32:11;;;;;;;2.70;2.40;;;;;;;5.90;39.93;99166.86;131485;1290;22662;-84
2023/03/29 11:35:14;;;;;;;3.10;2.60;;;;;;;5.93;40.01;99164.80;131522;1290;25487;-86
2023/03/29 11:38:17;;;;;;;3.00;2.10;;;;;;;5.97;39.41;99162.35;132117;1290;22652;-86
2023/03/29 11:41:20;;;;;;;2.90;2.70;;;;;;;6.01;38.36;99155.17;133971;1289;22589;-86
2023/03/29 11:44:23;;;;;;;2.60;2.20;;;;;;;6.03;38.80;99151.48;132852;1290;22653;-84
2023/03/29 11:47:26;;;;;;;4.50;2.80;;;;;;;6.10;39.79;99149.63;132101;1289;25432;-83
2023/03/29 11:50:29;;;;;;;3.60;2.50;;;;;;;6.18;39.86;99145.25;131685;1278;24330;-85
2023/03/29 11:53:32;;;;;;;2.90;2.20;;;;;;;6.26;39.03;99147.65;131684;1286;22546;-85
2023/03/29 11:56:35;;;;;;;4.30;2.10;;;;;;;6.27;38.60;99144.25;131830;1290;26624;-84
2023/03/29 11:59:38;;;;;;;3.50;2.70;;;;;;;6.30;39.53;99139.94;131714;1289;25280;-85
2023/03/29 12:02:41;;;;;;;2.70;2.40;;;;;;;6.38;40.36;99133.11;131579;1289;23445;-87
2023/03/29 12:05:44;;;;;;;4.40;3.10;;;;;;;6.45;39.87;99132.27;132106;1290;22668;-84
2023/03/29 12:08:47;;;;;;;3.90;2.90;;;;;;;6.50;39.00;99129.79;134730;1290;22567;-85
2023/03/29 12:11:49;;;;;;;4.70;2.80;;;;;;;6.49;38.08;99123.91;134940;1290;22626;-84
2023/03/29 12:14:53;;;;;;;4.40;3.10;;;;;;;6.50;38.32;99125.41;134403;1289;22553;-85
2023/03/29 12:17:56;;;;;;;2.80;2.30;;;;;;;6.55;38.28;99116.59;131781;1290;25440;-85
2023/03/29 12:20:58;;;;;;;4.00;2.80;;;;;;;6.63;38.52;99116.30;131998;1289;25444;-85
2023/03/29 12:24:01;;;;;;;4.40;2.80;;;;;;;6.69;37.72;99114.67;131978;1274;24233;-85
2023/03/29 12:27:06;;;;;;;6.20;3.10;;;;;;;6.69;37.17;99111.49;131783;1290;24384;-85
2023/03/29 12:30:09;;;;;;;6.40;3.30;;;;;;;6.68;37.34;99110.95;131526;1289;22540;-84
2023/03/29 12:33:11;;;;;;;4.20;3.50;;;;;;;6.67;37.75;99110.78;131479;1290;22556;-84
2023/03/29 12:36:15;;;;;;;4.00;3.20;;;;;;;6.68;36.35;99108.48;131485;1290;25396;-85
2023/03/29 12:39:18;;;;;;;4.50;3.70;;;;;;;6.67;36.60;99110.78;131468;1289;22474;-85
2023/03/29 12:42:20;;;;;;;4.30;3.80;;;;;;;6.66;36.82;99106.23;131917;1289;23241;-85
2023/03/29 12:45:23;;;;;;;8.20;4.50;;;;;;;6.67;38.16;99101.41;132180;1290;25737;-84
2023/03/29 12:48:28;;;;;;;8.30;4.80;;;;;;;6.74;38.52;99104.91;132114;1290;22530;-84
2023/03/29 12:51:34;;;;;;;4.80;4.30;;;;;;;6.78;38.57;99098.16;131816;1269;22565;-85
2023/03/29 12:54:40;;;;;;;7.00;5.40;;;;;;;6.78;38.89;99093.61;131545;1286;22547;-86
2023/03/29 12:57:46;;;;;;;6.90;6.00;;;;;;;6.81;39.60;99093.56;131495;1290;23119;-86
2023/03/29 13:00:54;;;;;;;7.40;5.90;;;;;;;6.83;39.81;99089.98;132544;1290;22575;-86
2023/03/29 13:04:02;;;;;;;;;;;;;;;6.84;40.09;99084.51;132427;1290;25419;-86
2023/03/29 13:07:08;;;;;;;6.50;5.50;;;;;;;6.86;40.50;99076.73;132659;1290;22815;-85
2023/03/29 13:10:11;;;;;;;7.20;5.60;;;;;;;6.90;40.79;99073.42;132563;1290;24386;-85
2023/03/29 13:13:14;;;;;;;8.90;6.10;;;;;;;6.93;40.91;99071.52;132703;1290;25352;-84
2023/03/29 13:16:17;;;;;;;5.60;4.50;;;;;;;6.96;40.43;99067.64;132217;1290;22579;-86
2023/03/29 13:19:20;;;;;;;5.90;4.20;;;;;;;6.97;39.21;99064.59;132470;1290;22539;-84
2023/03/29 13:22:23;;;;;;;5.50;3.40;;;;;;;6.99;39.54;99062.58;132433;1290;22612;-85
2023/03/29 13:25:26;;;;;;;4.70;3.70;;;;;;;7.04;39.97;99057.45;133596;1267;24248;-84
2023/03/29 13:28:29;;;;;;;7.90;4.50;;;;;;;7.07;40.50;99047.83;133942;1290;24314;-85
2023/03/29 13:31:31;;;;;;;6.40;4.90;;;;;;;7.11;40.22;99048.43;133888;1290;24292;-87
2023/03/29 13:34:34;;;;;;;9.40;5.60;;;;;;;7.14;40.66;99040.52;132331;1289;22581;-86
2023/03/29 13:37:37;;;;;;;7.40;5.60;;;;;;;7.18;40.67;99037.52;133024;1290;22966;-87
2023/03/29 13:40:40;;;;;;;9.20;5.30;;;;;;;7.24;40.87;99038.20;133935;1290;25344;-88
2023/03/29 13:43:43;;;;;;;8.10;4.80;;;;;;;7.29;40.99;99039.23;132841;1290;25896;-86
2023/03/29 13:46:46;;;;;;;9.20;5.20;;;;;;;7.31;41.14;99036.39;131940;1290;22648;-82
2023/03/29 13:49:49;;;;;;;7.10;5.00;;;;;;;7.31;40.33;99031.76;131853;1290;23073;-85
2023/03/29 13:52:52;;;;;;;5.60;5.10;;;;;;;7.28;40.60;99030.80;131787;1290;22542;-86
2023/03/29 13:55:55;;;;;;;7.50;4.60;;;;;;;7.28;40.77;99027.80;132048;1290;22648;-88
2023/03/29 13:58:58;;;;;;;6.00;4.50;;;;;;;7.31;40.78;99028.92;132066;1290;22765;-84
2023/03/29 14:02:01;;;;;;;7.80;5.90;;;;;;;7.31;40.72;99025.45;131553;1290;23065;-86
2023/03/29 14:05:04;;;;;;;8.90;7.10;;;;;;;7.32;40.70;99022.11;132086;1290;25609;-86